Billings, MT (59102)

12:31 PM MST on March 01, 2015 (GMT -0700)
QTH | Change Station
CLOSE
Current Station
Personal Weather Station
Location: Billings, MT
Elevation: 3228 ft
Nearby Weather Stations

Elev 3228 ft 45.78 °N, 108.57 °W | Updated 23 seconds ago

Partly Cloudy
Partly Cloudy
36.3 °F
Feels Like 36 °F
N
2.2
Wind Variable Wind from South
Gusts 8.3 mph

Today
High -- | Low -- °F
--% Chance of Precip.
Yesterday
High -- | Low -- °F
Precip. -- in
6:53 AM 6:00 PM
Waxing Gibbous, 87% visible
Pressure 30.41 in
Visibility 10.0 miles
Clouds Few 3000 ft
Windchill 36 °F
Dew Point 2 °F
Humidity 23%
Rainfall 0.00 in
Snow Depth Not available.
UV 4 out of 12
Pollen .10 out of 12
Air Quality Not available.
Flu Activity Not available.
METAR KBIL 011853Z VRB03KT 10SM FEW030 M02/M17 A3026 RMK AO2 SLP297 T10171167

More Conditions Fewer Conditions

Pressure 30.41 in
Visibility 10.0 miles
Clouds Few 3000 ft
Windchill 36 °F
Dew Point 2 °F
Humidity 23%
Rainfall 0.00 in
Snow Depth Not available.
UV 4 out of 12
Pollen .10 out of 12
Air Quality Not available.
Flu Activity Not available.
METAR KBIL 011853Z VRB03KT 10SM FEW030 M02/M17 A3026 RMK AO2 SLP297 T10171167

More Conditions Fewer Conditions

10-Day Weather Forecast

Almanac

Astronomy

Mar. 01, 2015 Rise Set
Actual Time
Civil Twilight
Nautical Twilight
Astronomical Twilight
Moon
Length of Visible Light
Length of Day
Tomorrow will be .
, % of the Moon is Illuminated

Today's Extremes

State Highs State Lows

Community

WunderPhotos

Upload Photos

1,801,491 photos uploaded!

WunderBlogs® & News

Nearby

Air Quality

  Air Quality AQ Index Pollutant
Not available.

Snow Depth

Station Depth Elevation

Earthquake Activity

City Distance Mag. Time & Date
Minimum magnitude displayed is 2.5.

Coastal Water Temperatures

Place Temperature

Nearby Weather Stations